createdAt,value
2023-08-26T00:00:52.774Z,8.30
2023-08-26T00:01:52.719Z,8.10
2023-08-26T00:02:52.745Z,7.60
2023-08-26T00:03:52.726Z,7.40
2023-08-26T00:04:52.673Z,7.80
2023-08-26T00:05:52.658Z,8.40
2023-08-26T00:06:52.644Z,8.00
2023-08-26T00:07:52.648Z,8.80
2023-08-26T00:08:52.624Z,10.10
2023-08-26T00:09:52.639Z,9.80
2023-08-26T00:10:52.605Z,9.40
2023-08-26T00:11:52.591Z,9.20
2023-08-26T00:12:52.636Z,9.60
2023-08-26T00:13:52.571Z,9.60
2023-08-26T00:14:52.591Z,10.90
2023-08-26T00:15:52.586Z,10.60
2023-08-26T00:16:52.558Z,10.40
2023-08-26T00:17:52.561Z,10.30
2023-08-26T00:18:52.519Z,10.90
2023-08-26T00:19:52.506Z,10.20
2023-08-26T00:20:52.497Z,11.30
2023-08-26T00:21:52.481Z,11.00
2023-08-26T00:22:52.505Z,11.10
2023-08-26T00:23:52.462Z,10.20
2023-08-26T00:24:52.465Z,11.10
2023-08-26T00:25:52.473Z,12.70
2023-08-26T00:26:52.442Z,10.30
2023-08-26T00:27:52.456Z,11.70
2023-08-26T00:28:52.424Z,12.90
2023-08-26T00:29:52.389Z,13.00
2023-08-26T00:30:52.379Z,13.90
2023-08-26T00:31:52.371Z,13.70
2023-08-26T00:32:52.460Z,15.20
2023-08-26T00:33:52.350Z,14.90
2023-08-26T00:34:52.352Z,15.60
2023-08-26T00:35:52.326Z,15.30
2023-08-26T00:36:52.314Z,14.80
2023-08-26T00:37:52.305Z,14.50
2023-08-26T00:38:52.299Z,14.60
2023-08-26T00:39:52.285Z,14.90
2023-08-26T00:40:52.284Z,16.30
2023-08-26T00:41:52.287Z,16.70
2023-08-26T00:42:52.260Z,17.10
2023-08-26T00:43:52.257Z,17.20
2023-08-26T00:44:52.260Z,29.70
2023-08-26T00:45:52.218Z,53.50
2023-08-26T00:46:52.229Z,29.20
2023-08-26T00:47:52.254Z,45.40
2023-08-26T00:48:52.198Z,28.80
2023-08-26T00:49:52.202Z,21.80
2023-08-26T00:50:52.210Z,18.50
2023-08-26T00:51:52.154Z,23.70
2023-08-26T00:52:52.158Z,19.00
2023-08-26T00:53:52.150Z,18.10
2023-08-26T00:54:52.117Z,17.80
2023-08-26T00:55:52.118Z,17.10
2023-08-26T00:56:52.097Z,19.10
2023-08-26T00:57:52.108Z,17.70
2023-08-26T00:58:52.095Z,17.70
2023-08-26T00:59:52.072Z,16.40
2023-08-26T01:00:52.084Z,15.30
2023-08-26T01:01:52.057Z,15.60
2023-08-26T01:02:52.104Z,15.80
2023-08-26T01:03:52.105Z,15.60
2023-08-26T01:04:52.022Z,15.80
2023-08-26T01:05:52.024Z,15.00
2023-08-26T01:06:51.987Z,14.40
2023-08-26T01:07:51.997Z,16.10
2023-08-26T01:08:51.970Z,16.20
2023-08-26T01:09:51.947Z,14.90
2023-08-26T01:10:51.977Z,14.00
2023-08-26T01:11:51.944Z,16.70
2023-08-26T01:12:51.921Z,17.70
2023-08-26T01:13:51.930Z,16.10
2023-08-26T01:14:51.898Z,14.40
2023-08-26T01:15:51.915Z,14.70
2023-08-26T01:16:51.959Z,14.80
2023-08-26T01:17:51.929Z,13.40
2023-08-26T01:18:51.847Z,13.60
2023-08-26T01:19:51.836Z,14.20
2023-08-26T01:20:51.843Z,15.00
2023-08-26T01:21:51.819Z,16.70
2023-08-26T01:22:51.799Z,14.40
2023-08-26T01:23:51.803Z,14.30
2023-08-26T01:24:51.792Z,12.70
2023-08-26T01:25:51.784Z,9.90
2023-08-26T01:26:51.787Z,11.00
2023-08-26T01:27:51.745Z,10.50
2023-08-26T01:28:51.741Z,9.30
2023-08-26T01:29:51.768Z,8.30
2023-08-26T01:30:51.769Z,9.60
2023-08-26T01:31:51.730Z,9.00
2023-08-26T01:32:51.720Z,7.00
2023-08-26T01:33:51.697Z,7.70
2023-08-26T01:34:51.672Z,8.60
2023-08-26T01:35:51.658Z,16.30
2023-08-26T01:36:51.667Z,36.80
2023-08-26T01:37:52.747Z,57.60
2023-08-26T01:38:51.635Z,48.00
2023-08-26T01:39:51.614Z,39.50
2023-08-26T01:40:51.626Z,7.40
2023-08-26T01:41:51.691Z,8.00
2023-08-26T01:42:51.610Z,6.10
2023-08-26T01:43:51.612Z,5.70
2023-08-26T01:44:51.576Z,4.90
2023-08-26T01:45:51.583Z,5.10
2023-08-26T01:46:51.564Z,5.30
2023-08-26T01:47:51.628Z,4.90
2023-08-26T01:48:51.524Z,5.60
2023-08-26T01:49:51.512Z,5.10
2023-08-26T01:50:51.499Z,6.20
2023-08-26T01:51:51.506Z,6.00
2023-08-26T01:52:51.480Z,5.70
2023-08-26T01:53:51.465Z,7.70
2023-08-26T01:54:51.457Z,12.30
2023-08-26T01:55:51.478Z,28.70
2023-08-26T01:56:51.432Z,51.00
2023-08-26T01:57:51.441Z,43.40
2023-08-26T01:58:51.408Z,39.90
2023-08-26T01:59:51.401Z,55.30
2023-08-26T02:00:51.392Z,46.00
2023-08-26T02:01:51.473Z,49.10
2023-08-26T02:02:51.441Z,34.20
2023-08-26T02:03:51.444Z,17.90
2023-08-26T02:04:51.349Z,21.10
2023-08-26T02:05:51.331Z,16.30
2023-08-26T02:06:51.320Z,11.80
2023-08-26T02:07:51.339Z,13.50
2023-08-26T02:08:51.311Z,14.70
2023-08-26T02:09:51.282Z,12.00
2023-08-26T02:10:51.330Z,3.90
2023-08-26T02:11:51.265Z,2.50
2023-08-26T02:12:51.268Z,2.00
2023-08-26T02:13:51.262Z,2.00
2023-08-26T02:14:51.257Z,1.80
2023-08-26T02:15:51.267Z,1.60
2023-08-26T02:16:51.222Z,1.20
2023-08-26T02:17:51.266Z,1.20
2023-08-26T02:18:51.190Z,1.10
2023-08-26T02:19:51.212Z,1.20
2023-08-26T02:20:51.174Z,1.30
2023-08-26T02:21:51.159Z,1.20
2023-08-26T02:22:51.158Z,1.50
2023-08-26T02:23:51.138Z,1.30
2023-08-26T02:24:51.144Z,1.90
2023-08-26T02:25:51.107Z,1.90
2023-08-26T02:26:51.123Z,2.20
2023-08-26T02:27:51.088Z,2.10
2023-08-26T02:28:51.084Z,2.30
2023-08-26T02:29:51.096Z,2.40
2023-08-26T02:30:51.082Z,2.30
2023-08-26T02:31:51.104Z,2.10
2023-08-26T02:32:51.113Z,2.00
2023-08-26T02:33:51.048Z,1.50
2023-08-26T02:34:51.031Z,1.60
2023-08-26T02:35:51.010Z,1.60
2023-08-26T02:36:51.009Z,1.60
2023-08-26T02:37:50.982Z,1.70
2023-08-26T02:38:50.991Z,1.90
2023-08-26T02:39:50.953Z,2.00
2023-08-26T02:40:50.945Z,2.00
2023-08-26T02:41:50.961Z,1.80
2023-08-26T02:42:50.923Z,1.90
2023-08-26T02:43:50.906Z,1.80
2023-08-26T02:44:50.898Z,1.80
2023-08-26T02:45:50.919Z,1.90
2023-08-26T02:46:50.877Z,1.90
2023-08-26T02:47:50.949Z,2.10
2023-08-26T02:48:50.860Z,1.60
2023-08-26T02:49:50.872Z,1.80
2023-08-26T02:50:50.841Z,1.60
2023-08-26T02:51:50.818Z,1.60
2023-08-26T02:52:50.828Z,1.70
2023-08-26T02:53:50.799Z,1.80
2023-08-26T02:54:50.788Z,2.00
2023-08-26T02:55:50.776Z,1.70
2023-08-26T02:56:50.766Z,1.60
2023-08-26T02:57:50.755Z,1.60
2023-08-26T02:58:50.758Z,1.50
2023-08-26T02:59:50.733Z,1.40
2023-08-26T03:00:50.720Z,1.50
2023-08-26T03:01:50.715Z,1.60
2023-08-26T03:02:52.574Z,1.90
2023-08-26T03:03:50.754Z,1.80
2023-08-26T03:04:50.692Z,1.70
2023-08-26T03:05:50.692Z,2.00
2023-08-26T03:06:50.683Z,1.90
2023-08-26T03:07:50.643Z,2.00
2023-08-26T03:08:50.646Z,2.00
2023-08-26T03:09:50.641Z,2.50
2023-08-26T03:10:50.611Z,2.10
2023-08-26T03:11:50.604Z,2.20
2023-08-26T03:12:50.602Z,1.90
2023-08-26T03:13:50.579Z,1.90
2023-08-26T03:14:50.571Z,2.00
2023-08-26T03:15:50.633Z,2.10
2023-08-26T03:16:50.553Z,1.90
2023-08-26T03:17:50.657Z,2.00
2023-08-26T03:18:50.527Z,2.00
2023-08-26T03:19:50.506Z,1.90
2023-08-26T03:20:50.530Z,2.00
2023-08-26T03:21:50.564Z,2.20
2023-08-26T03:22:50.502Z,2.30
2023-08-26T03:23:50.477Z,2.00
2023-08-26T03:24:50.466Z,2.10
2023-08-26T03:25:50.472Z,2.40
2023-08-26T03:26:50.440Z,2.10
2023-08-26T03:27:50.432Z,2.20
2023-08-26T03:28:50.443Z,2.00
2023-08-26T03:29:50.403Z,2.10
2023-08-26T03:30:50.393Z,2.60
2023-08-26T03:31:50.386Z,2.30
2023-08-26T03:32:50.426Z,2.10
2023-08-26T03:33:50.386Z,2.00
2023-08-26T03:34:50.348Z,1.70
2023-08-26T03:35:50.335Z,1.90
2023-08-26T03:36:50.341Z,1.90
2023-08-26T03:37:50.338Z,2.00
2023-08-26T03:38:50.310Z,2.00
2023-08-26T03:39:50.313Z,2.10
2023-08-26T03:40:50.276Z,2.00
2023-08-26T03:41:50.273Z,2.10
2023-08-26T03:42:50.262Z,2.00
2023-08-26T03:43:50.263Z,2.10
2023-08-26T03:44:50.234Z,1.90
2023-08-26T03:45:50.269Z,1.90
2023-08-26T03:46:50.231Z,1.90
2023-08-26T03:47:50.219Z,2.00
2023-08-26T03:48:50.204Z,1.80
2023-08-26T03:49:50.207Z,1.90
2023-08-26T03:50:50.182Z,1.90
2023-08-26T03:51:50.163Z,2.10
2023-08-26T03:52:50.151Z,1.80
2023-08-26T03:53:50.170Z,1.90
2023-08-26T03:54:51.122Z,2.20
2023-08-26T03:55:50.133Z,1.90
2023-08-26T03:56:50.101Z,2.00
2023-08-26T03:57:50.092Z,2.00
2023-08-26T03:58:50.097Z,2.10
2023-08-26T03:59:50.096Z,2.10
2023-08-26T04:00:50.124Z,2.20
2023-08-26T04:01:50.066Z,2.00
2023-08-26T04:02:50.071Z,2.30
2023-08-26T04:03:50.093Z,2.30
2023-08-26T04:04:50.020Z,2.70
2023-08-26T04:05:50.017Z,2.20
2023-08-26T04:06:50.015Z,2.00
2023-08-26T04:07:50.002Z,1.90
2023-08-26T04:08:49.986Z,2.00
2023-08-26T04:09:49.995Z,2.20
2023-08-26T04:10:49.959Z,2.00
2023-08-26T04:11:49.935Z,2.20
2023-08-26T04:12:49.925Z,2.10
2023-08-26T04:13:49.937Z,1.90
2023-08-26T04:14:49.910Z,2.30
2023-08-26T04:15:49.959Z,2.40
2023-08-26T04:16:49.888Z,2.30
2023-08-26T04:17:49.943Z,2.10
2023-08-26T04:18:49.877Z,2.30
2023-08-26T04:19:49.850Z,2.00
2023-08-26T04:20:49.841Z,2.10
2023-08-26T04:21:49.828Z,2.10
2023-08-26T04:22:49.831Z,2.20
2023-08-26T04:23:49.808Z,2.30
2023-08-26T04:24:49.806Z,2.20
2023-08-26T04:25:49.807Z,1.90
2023-08-26T04:26:49.784Z,2.00
2023-08-26T04:27:49.768Z,2.00
2023-08-26T04:28:49.758Z,2.20
2023-08-26T04:29:49.739Z,2.20
2023-08-26T04:30:49.762Z,2.40
2023-08-26T04:31:49.767Z,2.20
2023-08-26T04:32:49.731Z,2.20
2023-08-26T04:33:49.710Z,2.40
2023-08-26T04:34:49.688Z,2.20
2023-08-26T04:35:49.671Z,2.30
2023-08-26T04:36:49.663Z,2.20
2023-08-26T04:37:49.685Z,2.10
2023-08-26T04:38:49.637Z,2.30
2023-08-26T04:39:49.643Z,2.00
2023-08-26T04:40:49.616Z,2.40
2023-08-26T04:41:49.629Z,2.00
2023-08-26T04:42:49.592Z,2.10
2023-08-26T04:43:49.601Z,2.00
2023-08-26T04:44:49.575Z,2.30
2023-08-26T04:45:49.600Z,2.20
2023-08-26T04:46:49.628Z,2.40
2023-08-26T04:47:49.601Z,2.40
2023-08-26T04:48:49.527Z,2.20
2023-08-26T04:49:49.517Z,2.30
2023-08-26T04:50:49.541Z,3.00
2023-08-26T04:51:49.511Z,2.40
2023-08-26T04:52:49.488Z,2.40
2023-08-26T04:53:49.467Z,2.50
2023-08-26T04:54:49.484Z,2.30
2023-08-26T04:55:49.461Z,2.50
2023-08-26T04:56:49.454Z,3.00
2023-08-26T04:57:49.461Z,2.90
2023-08-26T04:58:49.435Z,3.30
2023-08-26T04:59:49.418Z,2.90
2023-08-26T05:00:49.419Z,2.70
2023-08-26T05:01:49.381Z,2.40
2023-08-26T05:02:49.477Z,2.30
2023-08-26T05:03:49.562Z,2.60
2023-08-26T05:04:49.366Z,2.30
2023-08-26T05:05:49.341Z,2.40
2023-08-26T05:06:49.328Z,2.70
2023-08-26T05:07:49.310Z,2.30
2023-08-26T05:08:49.310Z,2.10
2023-08-26T05:09:49.294Z,2.20
2023-08-26T05:10:49.284Z,2.00
2023-08-26T05:11:49.322Z,2.50
2023-08-26T05:12:49.253Z,2.80
2023-08-26T05:13:49.279Z,2.70
2023-08-26T05:14:49.232Z,2.90
2023-08-26T05:15:49.230Z,2.40
2023-08-26T05:16:49.265Z,2.60
2023-08-26T05:17:49.235Z,2.40
2023-08-26T05:18:51.695Z,2.30
2023-08-26T05:19:49.205Z,2.80
2023-08-26T05:20:49.184Z,2.60
2023-08-26T05:21:49.170Z,2.30
2023-08-26T05:22:49.157Z,2.40
2023-08-26T05:23:49.158Z,2.40
2023-08-26T05:24:49.135Z,2.30
2023-08-26T05:25:49.122Z,2.50
2023-08-26T05:26:49.107Z,2.40
2023-08-26T05:27:49.119Z,2.20
2023-08-26T05:28:49.085Z,2.60
2023-08-26T05:29:49.098Z,2.20
2023-08-26T05:30:49.095Z,2.20
2023-08-26T05:31:49.052Z,2.60
2023-08-26T05:32:49.103Z,2.40
2023-08-26T05:33:49.029Z,2.50
2023-08-26T05:34:49.019Z,2.40
2023-08-26T05:35:49.021Z,2.40
2023-08-26T05:36:48.992Z,2.30
2023-08-26T05:37:48.987Z,2.40
2023-08-26T05:38:48.977Z,2.50
2023-08-26T05:39:48.964Z,2.70
2023-08-26T05:40:48.949Z,2.40
2023-08-26T05:41:48.950Z,2.40
2023-08-26T05:42:48.946Z,2.40
2023-08-26T05:43:48.927Z,2.60
2023-08-26T05:44:48.927Z,2.50
2023-08-26T05:45:49.020Z,2.30
2023-08-26T05:46:48.899Z,5.90
2023-08-26T05:47:48.924Z,6.50
2023-08-26T05:48:48.864Z,3.00
2023-08-26T05:49:48.853Z,9.50
2023-08-26T05:50:48.841Z,2.70
2023-08-26T05:51:48.829Z,2.70
2023-08-26T05:52:48.834Z,2.20
2023-08-26T05:53:48.823Z,2.20
2023-08-26T05:54:48.811Z,2.40
2023-08-26T05:55:48.789Z,2.80
2023-08-26T05:56:48.789Z,2.40
2023-08-26T05:57:48.825Z,2.30
2023-08-26T05:58:48.749Z,2.10
2023-08-26T05:59:48.764Z,2.50
2023-08-26T06:00:48.728Z,2.40
2023-08-26T06:01:48.777Z,2.80
2023-08-26T06:02:48.756Z,2.70
2023-08-26T06:03:48.729Z,2.50
2023-08-26T06:04:48.683Z,2.20
2023-08-26T06:05:48.699Z,1.90
2023-08-26T06:06:48.661Z,2.40
2023-08-26T06:07:48.652Z,2.30
2023-08-26T06:08:48.647Z,2.40
2023-08-26T06:09:48.629Z,3.00
2023-08-26T06:10:48.618Z,3.00
2023-08-26T06:11:48.623Z,2.50
2023-08-26T06:12:48.612Z,2.50
2023-08-26T06:13:48.583Z,2.80
2023-08-26T06:14:48.573Z,2.60
2023-08-26T06:15:48.564Z,2.10
2023-08-26T06:16:48.571Z,2.30
2023-08-26T06:17:48.599Z,2.70
2023-08-26T06:18:48.528Z,2.60
2023-08-26T06:19:48.521Z,2.70
2023-08-26T06:20:48.532Z,2.20
2023-08-26T06:21:48.508Z,2.50
2023-08-26T06:22:48.491Z,3.30
2023-08-26T06:23:48.499Z,3.20
2023-08-26T06:24:48.463Z,4.60
2023-08-26T06:25:48.453Z,3.00
2023-08-26T06:26:48.446Z,2.30
2023-08-26T06:27:48.437Z,2.10
2023-08-26T06:28:48.417Z,2.10
2023-08-26T06:29:48.425Z,2.30
2023-08-26T06:30:48.395Z,2.20
2023-08-26T06:31:48.423Z,2.10
2023-08-26T06:32:48.457Z,2.10
2023-08-26T06:33:48.410Z,2.00
2023-08-26T06:34:48.351Z,1.80
2023-08-26T06:35:48.356Z,2.20
2023-08-26T06:36:48.336Z,2.10
2023-08-26T06:37:48.322Z,2.40
2023-08-26T06:38:48.314Z,2.00
2023-08-26T06:39:48.311Z,2.30
2023-08-26T06:40:48.301Z,2.40
2023-08-26T06:41:48.278Z,12.10
2023-08-26T06:42:48.264Z,7.30
2023-08-26T06:43:48.256Z,6.80
2023-08-26T06:44:48.261Z,4.70
2023-08-26T06:45:48.282Z,3.90
2023-08-26T06:46:48.221Z,3.40
2023-08-26T06:47:48.253Z,2.80
2023-08-26T06:48:48.200Z,2.80
2023-08-26T06:49:48.239Z,2.80
2023-08-26T06:50:48.184Z,3.10
2023-08-26T06:51:48.169Z,2.70
2023-08-26T06:52:48.173Z,2.70
2023-08-26T06:53:48.169Z,2.70
2023-08-26T06:54:48.160Z,2.80
2023-08-26T06:55:48.123Z,2.80
2023-08-26T06:56:48.109Z,2.70
2023-08-26T06:57:48.097Z,2.70
2023-08-26T06:58:48.088Z,2.50
2023-08-26T06:59:48.091Z,2.60
2023-08-26T07:00:48.061Z,3.10
2023-08-26T07:01:48.126Z,2.80
2023-08-26T07:02:48.152Z,2.70
2023-08-26T07:03:48.133Z,3.10
2023-08-26T07:04:48.051Z,2.50
2023-08-26T07:05:48.109Z,2.40
2023-08-26T07:06:48.001Z,2.40
2023-08-26T07:07:48.004Z,2.80
2023-08-26T07:08:47.985Z,2.10
2023-08-26T07:09:47.986Z,2.40
2023-08-26T07:10:47.958Z,7.30
2023-08-26T07:11:47.951Z,8.40
2023-08-26T07:12:47.937Z,7.30
2023-08-26T07:13:47.927Z,15.10
2023-08-26T07:14:47.913Z,8.90
2023-08-26T07:15:47.947Z,13.40
2023-08-26T07:16:47.893Z,9.70
2023-08-26T07:17:47.904Z,7.60
2023-08-26T07:18:47.893Z,6.60
2023-08-26T07:19:47.854Z,4.40
2023-08-26T07:20:47.854Z,4.00
2023-08-26T07:21:47.863Z,4.50
2023-08-26T07:22:47.824Z,5.20
2023-08-26T07:23:47.832Z,6.00
2023-08-26T07:24:47.815Z,9.80
2023-08-26T07:25:47.791Z,5.20
2023-08-26T07:26:47.777Z,4.90
2023-08-26T07:27:47.767Z,5.10
2023-08-26T07:28:47.756Z,17.10
2023-08-26T07:29:47.758Z,19.80
2023-08-26T07:30:47.752Z,11.10
2023-08-26T07:31:47.791Z,9.20
2023-08-26T07:32:47.790Z,5.60
2023-08-26T07:33:47.719Z,4.60
2023-08-26T07:34:47.699Z,3.30
2023-08-26T07:35:47.687Z,3.30
2023-08-26T07:36:47.690Z,3.00
2023-08-26T07:37:47.708Z,3.50
2023-08-26T07:38:47.642Z,3.10
2023-08-26T07:39:47.638Z,3.50
2023-08-26T07:40:47.649Z,4.40
2023-08-26T07:41:47.615Z,3.50
2023-08-26T07:42:47.621Z,3.60
2023-08-26T07:43:47.589Z,3.40
2023-08-26T07:44:47.580Z,3.70
2023-08-26T07:46:55.810Z,3.20
2023-08-26T07:48:47.623Z,3.60
2023-08-26T07:49:47.530Z,3.50
2023-08-26T07:50:47.510Z,3.60
2023-08-26T07:51:47.526Z,3.70
2023-08-26T07:52:47.487Z,3.40
2023-08-26T07:53:47.501Z,3.50
2023-08-26T07:54:47.470Z,3.30
2023-08-26T07:55:47.486Z,3.60
2023-08-26T07:56:47.462Z,3.50
2023-08-26T07:57:47.451Z,3.40
2023-08-26T07:58:47.440Z,3.90
2023-08-26T07:59:47.414Z,3.60
2023-08-26T08:00:47.466Z,3.70
2023-08-26T08:01:47.392Z,3.50
2023-08-26T08:02:47.456Z,3.20
2023-08-26T08:03:47.421Z,3.30
2023-08-26T08:04:47.367Z,3.30
2023-08-26T08:05:47.375Z,3.30
2023-08-26T08:06:47.351Z,3.60
2023-08-26T08:07:47.322Z,3.40
2023-08-26T08:08:47.336Z,3.40
2023-08-26T08:09:47.341Z,3.70
2023-08-26T08:10:47.301Z,3.70
2023-08-26T08:11:47.298Z,3.10
2023-08-26T08:12:47.272Z,3.40
2023-08-26T08:13:47.255Z,3.00
2023-08-26T08:14:47.253Z,3.30
2023-08-26T08:15:47.291Z,3.10
2023-08-26T08:16:47.224Z,3.00
2023-08-26T08:17:47.259Z,2.90
2023-08-26T08:18:47.210Z,3.00
2023-08-26T08:19:47.195Z,3.00
2023-08-26T08:20:47.208Z,2.80
2023-08-26T08:21:47.201Z,3.10
2023-08-26T08:22:47.159Z,3.00
2023-08-26T08:23:47.141Z,2.90
2023-08-26T08:24:47.146Z,3.10
2023-08-26T08:25:47.164Z,2.90
2023-08-26T08:26:47.118Z,2.60
2023-08-26T08:27:47.140Z,2.60
2023-08-26T08:28:47.092Z,3.00
2023-08-26T08:29:47.081Z,2.90
2023-08-26T08:30:47.387Z,2.80
2023-08-26T08:31:47.066Z,2.60
2023-08-26T08:32:47.085Z,2.70
2023-08-26T08:33:47.037Z,2.50
2023-08-26T08:34:47.037Z,2.50
2023-08-26T08:35:47.017Z,2.60
2023-08-26T08:36:47.010Z,2.70
2023-08-26T08:37:47.029Z,2.40
2023-08-26T08:38:46.984Z,2.60
2023-08-26T08:39:47.007Z,2.70
2023-08-26T08:40:46.957Z,2.70
2023-08-26T08:41:46.976Z,3.00
2023-08-26T08:42:46.942Z,2.40
2023-08-26T08:43:46.942Z,2.80
2023-08-26T08:44:46.917Z,2.60
2023-08-26T08:45:46.907Z,2.50
2023-08-26T08:46:46.996Z,2.50
2023-08-26T08:47:46.920Z,2.50
2023-08-26T08:48:46.886Z,2.40
2023-08-26T08:49:46.858Z,2.00
2023-08-26T08:50:46.851Z,2.40
2023-08-26T08:51:46.845Z,2.50
2023-08-26T08:52:46.854Z,2.40
2023-08-26T08:53:46.816Z,2.60
2023-08-26T08:54:46.811Z,2.30
2023-08-26T08:55:46.815Z,2.40
2023-08-26T08:56:46.797Z,2.50
2023-08-26T08:57:46.797Z,2.30
2023-08-26T08:58:46.799Z,2.50
2023-08-26T08:59:46.759Z,2.50
2023-08-26T09:00:46.787Z,2.50
2023-08-26T09:01:46.734Z,2.50
2023-08-26T09:02:46.796Z,2.50
2023-08-26T09:03:46.712Z,3.90
2023-08-26T09:04:46.710Z,3.10
2023-08-26T09:05:46.687Z,3.10
2023-08-26T09:06:46.670Z,7.30
2023-08-26T09:07:46.668Z,2.50
2023-08-26T09:08:46.660Z,2.60
2023-08-26T09:10:00.110Z,2.80
2023-08-26T09:10:47.649Z,2.60
2023-08-26T09:11:46.634Z,2.30
2023-08-26T09:12:46.604Z,2.40
2023-08-26T09:13:46.716Z,2.40
2023-08-26T09:14:46.581Z,2.30
2023-08-26T09:15:46.594Z,2.30
2023-08-26T09:16:46.574Z,2.50
2023-08-26T09:17:46.598Z,2.20
2023-08-26T09:18:46.542Z,2.50
2023-08-26T09:19:46.544Z,2.30
2023-08-26T09:20:46.522Z,2.20
2023-08-26T09:21:46.513Z,2.30
2023-08-26T09:22:46.496Z,2.30
2023-08-26T09:23:46.505Z,2.50
2023-08-26T09:24:46.499Z,2.40
2023-08-26T09:25:46.991Z,2.30
2023-08-26T09:26:46.453Z,2.40
2023-08-26T09:27:46.443Z,2.50
2023-08-26T09:28:46.427Z,2.40
2023-08-26T09:29:46.447Z,2.60
2023-08-26T09:30:46.447Z,2.50
2023-08-26T09:31:46.397Z,2.40
2023-08-26T09:32:46.452Z,2.60
2023-08-26T09:33:46.373Z,2.30
2023-08-26T09:34:46.358Z,2.60
2023-08-26T09:36:46.338Z,2.90
2023-08-26T09:37:46.341Z,2.60
2023-08-26T09:38:46.333Z,2.60
2023-08-26T09:39:46.326Z,2.80
2023-08-26T09:40:46.299Z,2.70
2023-08-26T09:41:46.396Z,2.70
2023-08-26T09:42:46.277Z,3.10
2023-08-26T09:43:46.266Z,3.10
2023-08-26T09:44:46.251Z,2.80
2023-08-26T09:45:46.296Z,2.50
2023-08-26T09:46:46.336Z,2.50
2023-08-26T09:47:46.243Z,2.50
2023-08-26T09:48:46.211Z,2.40
2023-08-26T09:49:46.200Z,2.60
2023-08-26T09:50:46.209Z,2.50
2023-08-26T09:51:46.185Z,2.50
2023-08-26T09:52:46.176Z,2.50
2023-08-26T09:53:46.173Z,2.60
2023-08-26T09:54:46.158Z,2.90
2023-08-26T09:55:46.143Z,2.50
2023-08-26T09:56:46.132Z,2.80
2023-08-26T09:57:46.135Z,2.90
2023-08-26T09:58:46.102Z,2.60
2023-08-26T09:59:46.100Z,2.90
2023-08-26T10:00:46.099Z,2.80
2023-08-26T10:01:46.155Z,3.00
2023-08-26T10:02:46.125Z,2.60
2023-08-26T10:03:46.130Z,2.90
2023-08-26T10:04:46.043Z,3.00
2023-08-26T10:05:46.042Z,3.10
2023-08-26T10:06:46.049Z,2.70
2023-08-26T10:07:46.020Z,2.90
2023-08-26T10:08:45.999Z,3.00
2023-08-26T10:09:45.994Z,2.90
2023-08-26T10:10:45.977Z,2.30
2023-08-26T10:11:45.967Z,2.80
2023-08-26T10:12:45.970Z,2.90
2023-08-26T10:13:45.959Z,2.60
2023-08-26T10:14:45.931Z,2.50
2023-08-26T10:15:45.943Z,2.70
2023-08-26T10:16:46.002Z,2.80
2023-08-26T10:17:46.018Z,2.60
2023-08-26T10:18:45.907Z,2.90
2023-08-26T10:19:45.884Z,2.60
2023-08-26T10:20:45.869Z,2.90
2023-08-26T10:21:46.748Z,3.40
2023-08-26T10:22:45.854Z,3.10
2023-08-26T10:23:45.848Z,2.70
2023-08-26T10:24:45.862Z,2.90
2023-08-26T10:25:45.817Z,2.90
2023-08-26T10:26:45.817Z,3.00
2023-08-26T10:27:45.793Z,3.00
2023-08-26T10:28:45.799Z,2.90
2023-08-26T10:29:45.778Z,3.10
2023-08-26T10:30:45.760Z,2.90
2023-08-26T10:31:45.795Z,3.30
2023-08-26T10:32:45.992Z,2.90
2023-08-26T10:33:45.765Z,3.10
2023-08-26T10:34:45.718Z,3.10
2023-08-26T10:35:45.744Z,3.40
2023-08-26T10:36:45.697Z,3.20
2023-08-26T10:37:45.685Z,3.20
2023-08-26T10:38:45.675Z,3.00
2023-08-26T10:39:45.691Z,3.10
2023-08-26T10:40:45.656Z,3.20
2023-08-26T10:41:45.641Z,3.30
2023-08-26T10:42:45.629Z,3.60
2023-08-26T10:43:45.615Z,3.50
2023-08-26T10:44:45.619Z,3.10
2023-08-26T10:45:45.659Z,3.40
2023-08-26T10:46:45.584Z,3.60
2023-08-26T10:47:45.599Z,3.50
2023-08-26T10:48:45.564Z,3.30
2023-08-26T10:49:45.620Z,3.30
2023-08-26T10:50:45.535Z,3.50
2023-08-26T10:51:45.539Z,3.30
2023-08-26T10:52:45.520Z,3.30
2023-08-26T10:53:45.512Z,3.50
2023-08-26T10:54:45.526Z,3.30
2023-08-26T10:55:45.499Z,3.70
2023-08-26T10:56:45.476Z,3.70
2023-08-26T10:57:45.462Z,3.40
2023-08-26T10:58:45.454Z,3.40
2023-08-26T10:59:45.441Z,3.40
2023-08-26T11:00:45.445Z,3.80
2023-08-26T11:01:45.453Z,3.30
2023-08-26T11:02:45.491Z,3.40
2023-08-26T11:03:45.461Z,3.50
2023-08-26T11:04:45.387Z,3.60
2023-08-26T11:05:45.420Z,3.30
2023-08-26T11:06:45.362Z,3.50
2023-08-26T11:07:45.347Z,3.50
2023-08-26T11:08:45.343Z,3.50
2023-08-26T11:09:45.359Z,3.20
2023-08-26T11:10:45.315Z,3.40
2023-08-26T11:11:45.324Z,3.50
2023-08-26T11:12:45.309Z,3.50
2023-08-26T11:13:45.282Z,3.40
2023-08-26T11:14:45.270Z,3.30
2023-08-26T11:15:45.279Z,3.70
2023-08-26T11:16:45.268Z,3.40
2023-08-26T11:17:51.557Z,3.80
2023-08-26T11:18:46.230Z,3.40
2023-08-26T11:19:45.214Z,3.60
2023-08-26T11:20:45.222Z,3.50
2023-08-26T11:21:45.233Z,3.10
2023-08-26T11:22:45.184Z,5.20
2023-08-26T11:23:45.207Z,3.60
2023-08-26T11:24:45.168Z,3.40
2023-08-26T11:25:45.155Z,3.30
2023-08-26T11:26:45.158Z,3.50
2023-08-26T11:27:45.137Z,3.60
2023-08-26T11:28:45.140Z,3.60
2023-08-26T11:29:45.107Z,3.60
2023-08-26T11:30:45.119Z,3.00
2023-08-26T11:31:45.189Z,3.60
2023-08-26T11:32:45.125Z,3.60
2023-08-26T11:33:45.078Z,3.60
2023-08-26T11:34:45.072Z,3.50
2023-08-26T11:35:51.967Z,3.50
2023-08-26T11:36:46.035Z,3.10
2023-08-26T11:37:45.052Z,3.10
2023-08-26T11:38:45.010Z,3.40
2023-08-26T11:39:45.007Z,3.30
2023-08-26T11:40:45.002Z,3.20
2023-08-26T11:41:44.980Z,3.30
2023-08-26T11:42:44.977Z,3.20
2023-08-26T11:43:44.959Z,3.40
2023-08-26T11:44:44.998Z,3.50
2023-08-26T11:45:44.962Z,3.50
2023-08-26T11:46:44.920Z,3.70
2023-08-26T11:47:44.953Z,3.80
2023-08-26T11:48:44.901Z,3.70
2023-08-26T11:49:44.892Z,3.70
2023-08-26T11:50:44.890Z,3.70
2023-08-26T11:51:44.885Z,3.40
2023-08-26T11:52:44.876Z,3.30
2023-08-26T11:53:44.875Z,3.60
2023-08-26T11:54:44.838Z,3.60
2023-08-26T11:55:44.825Z,3.50
2023-08-26T11:56:44.838Z,3.10
2023-08-26T11:57:44.804Z,3.10
2023-08-26T11:58:44.794Z,2.90
2023-08-26T11:59:44.837Z,3.20
2023-08-26T12:00:44.777Z,3.30
2023-08-26T12:01:44.825Z,2.90
2023-08-26T12:02:44.765Z,3.20
2023-08-26T12:03:46.031Z,3.00
2023-08-26T12:04:44.730Z,3.00
2023-08-26T12:05:44.717Z,3.40
2023-08-26T12:06:44.708Z,3.50
2023-08-26T12:07:44.705Z,3.30
2023-08-26T12:08:44.691Z,3.40
2023-08-26T12:09:44.722Z,3.30
2023-08-26T12:10:44.694Z,3.50
2023-08-26T12:11:44.655Z,3.30
2023-08-26T12:12:44.663Z,3.20
2023-08-26T12:13:44.652Z,3.20
2023-08-26T12:14:44.621Z,3.60
2023-08-26T12:15:44.617Z,3.10
2023-08-26T12:16:44.614Z,3.10
2023-08-26T12:17:44.641Z,3.70
2023-08-26T12:18:44.579Z,3.30
2023-08-26T12:19:44.574Z,3.10
2023-08-26T12:20:44.578Z,3.50
2023-08-26T12:21:44.547Z,3.20
2023-08-26T12:22:46.126Z,3.20
2023-08-26T12:23:44.531Z,3.30
2023-08-26T12:24:44.519Z,3.40
2023-08-26T12:25:44.620Z,3.30
2023-08-26T12:26:44.500Z,3.30
2023-08-26T12:27:44.484Z,3.70
2023-08-26T12:28:44.476Z,3.60
2023-08-26T12:29:44.471Z,3.70
2023-08-26T12:30:44.466Z,3.60
2023-08-26T12:31:44.578Z,3.50
2023-08-26T12:32:44.534Z,3.50
2023-08-26T12:33:58.228Z,3.50
2023-08-26T12:34:45.413Z,3.70
2023-08-26T12:35:44.429Z,3.50
2023-08-26T12:36:44.385Z,3.20
2023-08-26T12:37:44.373Z,3.40
2023-08-26T12:38:44.365Z,3.60
2023-08-26T12:39:44.361Z,3.40
2023-08-26T12:40:44.349Z,3.40
2023-08-26T12:41:46.120Z,3.40
2023-08-26T12:42:44.318Z,3.40
2023-08-26T12:43:44.310Z,3.60
2023-08-26T12:44:44.295Z,3.40
2023-08-26T12:45:44.507Z,3.40
2023-08-26T12:46:44.280Z,3.50
2023-08-26T12:47:44.451Z,3.60
2023-08-26T12:49:45.275Z,3.50
2023-08-26T12:50:44.234Z,3.40
2023-08-26T12:51:44.238Z,3.30
2023-08-26T12:52:44.230Z,3.60
2023-08-26T12:53:44.203Z,3.30
2023-08-26T12:54:44.196Z,3.70
2023-08-26T12:55:44.188Z,3.70
2023-08-26T12:56:44.184Z,4.00
2023-08-26T12:57:44.182Z,3.60
2023-08-26T12:58:44.524Z,3.60
2023-08-26T12:59:44.144Z,3.70
2023-08-26T13:00:44.129Z,3.50
2023-08-26T13:01:44.157Z,3.40
2023-08-26T13:02:44.166Z,3.50
2023-08-26T13:03:44.149Z,6.50
2023-08-26T13:04:44.108Z,21.30
2023-08-26T13:05:44.080Z,3.90
2023-08-26T13:06:44.062Z,12.70
2023-08-26T13:07:44.068Z,14.00
2023-08-26T13:08:44.043Z,3.50
2023-08-26T13:09:44.026Z,3.70
2023-08-26T13:10:44.017Z,3.60
2023-08-26T13:11:44.009Z,3.30
2023-08-26T13:12:44.355Z,7.20
2023-08-26T13:13:44.035Z,3.40
2023-08-26T13:14:43.972Z,72.70
2023-08-26T13:15:43.986Z,3.80
2023-08-26T13:16:43.960Z,4.30
2023-08-26T13:17:43.953Z,4.10
2023-08-26T13:18:44.029Z,4.30